Flight Track Log - Related Links

Times and Time Zones

All times are in EDT time to prevent confusion due to time zone crossing. See the KEE3T flight status page for this flight to view local times or setup timezone preferences in your user account.

Time Position Orientation Groundspeed Altitude Reporting Facility
EDT Latitude Longitude Course Direction KTS MPH feet Rate Location/Type
Tue 09:54:27 PM 50.0833 -97.0167 360° North 130 150 1,800  Level Winnipeg Center
Tue 09:55:27 PM 50.1167 -97.0167 360° North 140 161 4,100 2,000 Climbing Winnipeg Center
Tue 09:56:27 PM 50.1333 -96.9333 73° East 170 196 5,800 1,500 Climbing Winnipeg Center
Tue 09:57:27 PM 50.1000 -96.8667 128° Southeast 220 253 7,100 650 Climbing Winnipeg Center
Tue 09:58:27 PM 50.0667 -96.7833 122° Southeast 240 276 7,100  Level Winnipeg Center
Tue 09:59:27 PM 50.0833 -96.7000 73° East 170 196 7,100  Level Winnipeg Center
Tue 10:00:27 PM 50.1167 -96.6833 18° North 150 173 7,100  Level Winnipeg Center
Tue 10:01:27 PM 50.1500 -96.6333 44° Northeast 140 161 7,100  Level Winnipeg Center
Tue 10:02:27 PM 50.1833 -96.5667 52° Northeast 150 173 7,100  Level Winnipeg Center
Tue 10:03:27 PM 50.2000 -96.5167 62° Northeast 150 173 7,100 -50 Level Winnipeg Center
Tue 10:04:27 PM 50.2333 -96.5167 360° North 110 127 7,000  Descending Winnipeg Center
Tue 10:05:27 PM 50.2500 -96.5667 298° West 120 138 7,100  Climbing Winnipeg Center
Tue 10:06:27 PM 50.2667 -96.6000 308° West 120 138 7,000  Descending Winnipeg Center
Tue 10:07:27 PM 50.2833 -96.6333 308° West 80 92 7,100  Climbing Winnipeg Center
Tue 10:08:27 PM 50.2500 -96.6500 198° South 130 150 7,000 50 Descending Winnipeg Center
Tue 10:09:27 PM 50.2500 -96.6333 90° East 80 92 7,200 50 Climbing Winnipeg Center
Tue 10:10:27 PM 50.2667 -96.6833 298° West 120 138 7,100 -100 Descending Winnipeg Center
Tue 10:11:27 PM 50.2833 -96.7333 298° West 80 92 7,000  Descending Winnipeg Center
Tue 10:12:27 PM 50.2667 -96.7833 242° Southwest 130 150 7,100  Climbing Winnipeg Center
Tue 10:13:27 PM 50.2333 -96.7333 136° Southeast 200 230 7,000 -50 Descending Winnipeg Center
Tue 10:14:27 PM 50.2000 -96.6833 136° Southeast 160 184 7,000 50 Level Winnipeg Center
Tue 10:15:27 PM 50.1833 -96.6000 107° East 190 219 7,100  Climbing Winnipeg Center
Tue 10:16:27 PM 50.1667 -96.5500 117° Southeast 110 127 7,000 50 Descending Winnipeg Center
Tue 10:17:27 PM 50.2000 -96.5667 342° North 110 127 7,200 50 Climbing Winnipeg Center
Tue 10:18:27 PM 50.2333 -96.6000 327° Northwest 120 138 7,100 -200 Descending Winnipeg Center
Tue 10:19:27 PM 50.2500 -96.6333 308° West 100 115 6,800  Descending Winnipeg Center
Tue 10:20:27 PM 50.2667 -96.6500 327° Northwest 100 115 7,100 150 Climbing Winnipeg Center
Tue 10:21:27 PM 50.3000 -96.6833 327° Northwest 120 138 7,100 50 Level Winnipeg Center
Tue 10:22:27 PM 50.3000 -96.6333 90° East 180 207 7,200 -250 Climbing Winnipeg Center
Tue 10:23:27 PM 50.2500 -96.5667 140° Southeast 200 230 6,600 -50 Descending Winnipeg Center
Tue 10:24:27 PM 50.2000 -96.5500 168° South 190 219 7,100 200 Climbing Winnipeg Center
Tue 10:25:27 PM 50.1500 -96.5167 157° South 210 242 7,000 -100 Descending Winnipeg Center
Tue 10:26:27 PM 50.1500 -96.5667 270° West 120 138 6,900 -250 Descending Winnipeg Center
Tue 10:27:27 PM 50.1833 -96.6000 327° Northwest 130 150 6,500 -400 Descending Winnipeg Center
Tue 10:28:27 PM 50.2167 -96.6333 327° Northwest 140 161 6,100 -250 Descending Winnipeg Center
Tue 10:29:27 PM 50.2500 -96.6500 342° North 130 150 6,000 -150 Descending Winnipeg Center
Tue 10:30:27 PM 50.2667 -96.6833 308° West 120 138 5,800 -1,200 Descending Winnipeg Center
Tue 10:31:27 PM 50.3000 -96.7000 342° North 120 138 3,600 -1,250 Descending Winnipeg Center
Tue 10:32:27 PM 50.3333 -96.7333 327° Northwest 140 161 3,300 -350 Descending Winnipeg Center
Tue 10:33:27 PM 50.3667 -96.7833 316° Northwest 150 173 2,900 -400 Descending Winnipeg Center

Login

Don't have an account? Register now (free) for customized features, flight alerts, and more!